Cosco Nagoya — 3ESJ8 — position and weather

sailwx.info

Track history (hours):
 
Tides and Currents Weather Stations Pressure Air Temp Water Temp Dewpoint Dewpoint Depression Visibility Wind Speed Wind Dir Waves Ship Positions

Cosco Nagoya

Last reported at 2014-Nov-18 03:11 UTC. Time now 2014-Nov-23 04:46 UTC.
Position N 33°56' W 075°50'.

Length 260 m; draft 11.3 m.

Type: Ship (hazmat cat A). MMSI: 370320000.

Date/timePositionNaut miles runAvg speedWind from/ knotsBaromVisibWave heightAir tempDewpointWater temp
2014-Nov-18 03:11N 33°56' W 075°50'1521.8
2014-Nov-18 02:30N 33°49' W 076°06'  
2014-Nov-13 07:20N 39°24' W 073°30'1721.7
2014-Nov-13 06:33N 39°40' W 073°24'2019.8
2014-Nov-13 05:33N 39°60' W 073°20'10 9.5
2014-Nov-13 04:32N 40°08' W 073°28'10 9.8
2014-Nov-13 03:32N 40°15' W 073°36'9 9.6
2014-Nov-13 02:33N 40°22' W 073°44'9 9.3
2014-Nov-13 01:33N 40°28' W 073°53'1111.5
2014-Nov-13 00:34N 40°37' W 074°03'5 5.2
2014-Nov-12 23:33N 40°40' W 074°08'1 0.6
2014-Nov-12 22:31N 40°41' W 074°09'0 0.0
2014-Nov-12 21:31N 40°41' W 074°09'0 0.0
2014-Nov-12 20:31N 40°41' W 074°09'0 0.0
2014-Nov-12 19:31N 40°41' W 074°09'0 0.0
2014-Nov-12 18:31N 40°41' W 074°09'0 0.0
2014-Nov-12 17:31N 40°41' W 074°09'0 0.0
2014-Nov-12 16:31N 40°41' W 074°09'0 0.0
2014-Nov-12 15:31N 40°41' W 074°09'0 0.0
2014-Nov-12 14:31N 40°41' W 074°09'0 0.0
2014-Nov-12 13:31N 40°41' W 074°09'0 0.0
2014-Nov-12 12:31N 40°41' W 074°09'0 0.0
2014-Nov-12 11:31N 40°41' W 074°09'0 0.0
2014-Nov-12 10:31N 40°41' W 074°09'0 0.0
2014-Nov-12 09:31N 40°41' W 074°09'0 0.0
2014-Nov-12 08:31N 40°41' W 074°09'0 0.0
2014-Nov-12 07:31N 40°41' W 074°09'0 0.0
2014-Nov-12 06:31N 40°41' W 074°09'0 0.0
2014-Nov-12 05:31N 40°41' W 074°09'0 0.0
2014-Nov-12 04:31N 40°41' W 074°09'0 0.0
2014-Nov-12 03:31N 40°41' W 074°09'0 0.0
2014-Nov-12 02:31N 40°41' W 074°09'0 0.0
2014-Nov-12 01:31N 40°41' W 074°09'0 0.0
2014-Nov-12 00:31N 40°41' W 074°09'0 0.0
2014-Nov-11 23:31N 40°41' W 074°09'0 0.0
2014-Nov-11 22:31N 40°41' W 074°09'0 0.0
2014-Nov-11 21:31N 40°41' W 074°09'1 0.8
2014-Nov-11 20:33N 40°40' W 074°08'5 4.6
2014-Nov-11 19:33N 40°38' W 074°03'1111.1
2014-Nov-11 18:33N 40°29' W 073°54'8 7.6
2014-Nov-11 17:32N 40°27' W 073°44'3 3.4
2014-Nov-11 16:33N 40°28' W 073°40'5 5.4
2014-Nov-11 15:33N 40°28' W 073°33'8 8.3
2014-Nov-11 14:33N 40°29' W 073°22'8 8.3
2014-Nov-11 13:33N 40°29' W 073°11'10 9.7
2014-Nov-11 12:33N 40°30' W 072°58'1514.8
2014-Nov-11 11:33N 40°30' W 072°39'1514.8
2014-Nov-11 10:33N 40°31' W 072°19'1515.0
2014-Nov-11 09:33N 40°31' W 071°60'1514.9
2014-Nov-11 08:33N 40°32' W 071°40'1514.8
2014-Nov-11 07:33N 40°32' W 071°21'1514.8
2014-Nov-11 06:33N 40°33' W 071°01'1514.8
2014-Nov-11 05:33N 40°33' W 070°42'1514.6
2014-Nov-11 04:34N 40°34' W 070°23'1414.2
2014-Nov-11 03:33N 40°34' W 070°04'1414.4
2014-Nov-11 02:33N 40°35' W 069°45'1515.2
2014-Nov-11 01:33N 40°35' W 069°25'1716.7
2014-Nov-11 00:33N 40°35' W 069°03'1916.7
2014-Nov-10 23:25N 40°36' W 068°38'  
Track history (hours):
 
Tides and Currents Weather Stations Pressure Air Temp Water Temp Dewpoint Dewpoint Depression Visibility Wind Speed Wind Dir Waves Ship Positions

Cosco Nagoya

Last reported at 2014-Nov-18 03:11 UTC. Time now 2014-Nov-23 04:46 UTC.
Position N 33°56' W 075°50'.

Length 260 m; draft 11.3 m.

Type: Ship (hazmat cat A). MMSI: 370320000.

Date/timePositionNaut miles runAvg speedWind from/ knotsBaromVisibWave heightAir tempDewpointWater temp
2014-Nov-18 03:11N 33°56' W 075°50'1521.8
2014-Nov-18 02:30N 33°49' W 076°06'  
2014-Nov-13 07:20N 39°24' W 073°30'1721.7
2014-Nov-13 06:33N 39°40' W 073°24'2019.8
2014-Nov-13 05:33N 39°60' W 073°20'10 9.5
2014-Nov-13 04:32N 40°08' W 073°28'10 9.8
2014-Nov-13 03:32N 40°15' W 073°36'9 9.6
2014-Nov-13 02:33N 40°22' W 073°44'9 9.3
2014-Nov-13 01:33N 40°28' W 073°53'1111.5
2014-Nov-13 00:34N 40°37' W 074°03'5 5.2
2014-Nov-12 23:33N 40°40' W 074°08'1 0.6
2014-Nov-12 22:31N 40°41' W 074°09'0 0.0
2014-Nov-12 21:31N 40°41' W 074°09'0 0.0
2014-Nov-12 20:31N 40°41' W 074°09'0 0.0
2014-Nov-12 19:31N 40°41' W 074°09'0 0.0
2014-Nov-12 18:31N 40°41' W 074°09'0 0.0
2014-Nov-12 17:31N 40°41' W 074°09'0 0.0
2014-Nov-12 16:31N 40°41' W 074°09'0 0.0
2014-Nov-12 15:31N 40°41' W 074°09'0 0.0
2014-Nov-12 14:31N 40°41' W 074°09'0 0.0
2014-Nov-12 13:31N 40°41' W 074°09'0 0.0
2014-Nov-12 12:31N 40°41' W 074°09'0 0.0
2014-Nov-12 11:31N 40°41' W 074°09'0 0.0
2014-Nov-12 10:31N 40°41' W 074°09'0 0.0
2014-Nov-12 09:31N 40°41' W 074°09'0 0.0
2014-Nov-12 08:31N 40°41' W 074°09'0 0.0
2014-Nov-12 07:31N 40°41' W 074°09'0 0.0
2014-Nov-12 06:31N 40°41' W 074°09'0 0.0
2014-Nov-12 05:31N 40°41' W 074°09'0 0.0
2014-Nov-12 04:31N 40°41' W 074°09'0 0.0
2014-Nov-12 03:31N 40°41' W 074°09'0 0.0
2014-Nov-12 02:31N 40°41' W 074°09'0 0.0
2014-Nov-12 01:31N 40°41' W 074°09'0 0.0
2014-Nov-12 00:31N 40°41' W 074°09'0 0.0
2014-Nov-11 23:31N 40°41' W 074°09'0 0.0
2014-Nov-11 22:31N 40°41' W 074°09'0 0.0
2014-Nov-11 21:31N 40°41' W 074°09'1 0.8
2014-Nov-11 20:33N 40°40' W 074°08'5 4.6
2014-Nov-11 19:33N 40°38' W 074°03'1111.1
2014-Nov-11 18:33N 40°29' W 073°54'8 7.6
2014-Nov-11 17:32N 40°27' W 073°44'3 3.4
2014-Nov-11 16:33N 40°28' W 073°40'5 5.4
2014-Nov-11 15:33N 40°28' W 073°33'8 8.3
2014-Nov-11 14:33N 40°29' W 073°22'8 8.3
2014-Nov-11 13:33N 40°29' W 073°11'10 9.7
2014-Nov-11 12:33N 40°30' W 072°58'1514.8
2014-Nov-11 11:33N 40°30' W 072°39'1514.8
2014-Nov-11 10:33N 40°31' W 072°19'1515.0
2014-Nov-11 09:33N 40°31' W 071°60'1514.9
2014-Nov-11 08:33N 40°32' W 071°40'1514.8
2014-Nov-11 07:33N 40°32' W 071°21'1514.8
2014-Nov-11 06:33N 40°33' W 071°01'1514.8
2014-Nov-11 05:33N 40°33' W 070°42'1514.6
2014-Nov-11 04:34N 40°34' W 070°23'1414.2
2014-Nov-11 03:33N 40°34' W 070°04'1414.4
2014-Nov-11 02:33N 40°35' W 069°45'1515.2
2014-Nov-11 01:33N 40°35' W 069°25'1716.7
2014-Nov-11 00:33N 40°35' W 069°03'1916.7
2014-Nov-10 23:25N 40°36' W 068°38'  

Dump ship's entire track history